createdAt,value
2018-11-20T00:02:18.616Z,6.81
2018-11-20T00:04:47.790Z,6.84
2018-11-20T00:07:15.526Z,6.87
2018-11-20T00:09:44.428Z,6.88
2018-11-20T00:12:13.628Z,6.89
2018-11-20T00:14:41.944Z,6.88
2018-11-20T00:17:09.673Z,6.87
2018-11-20T00:19:38.568Z,6.87
2018-11-20T00:22:06.872Z,6.88
2018-11-20T00:24:35.187Z,6.89
2018-11-20T00:27:03.430Z,6.88
2018-11-20T00:29:31.806Z,6.88
2018-11-20T00:32:00.114Z,6.89
2018-11-20T00:34:28.428Z,6.88
2018-11-20T00:36:56.170Z,6.83
2018-11-20T00:39:25.055Z,6.76
2018-11-20T00:41:53.395Z,6.77
2018-11-20T00:44:21.697Z,6.76
2018-11-20T00:46:49.426Z,6.80
2018-11-20T00:49:18.327Z,6.83
2018-11-20T00:51:46.673Z,6.82
2018-11-20T00:54:14.962Z,6.79
2018-11-20T00:56:43.288Z,6.78
2018-11-20T00:59:11.600Z,6.81
2018-11-20T01:01:39.332Z,6.79
2018-11-20T01:04:07.651Z,6.78
2018-11-20T01:06:36.539Z,6.77
2018-11-20T01:09:04.265Z,6.77
2018-11-20T01:11:33.156Z,6.77
2018-11-20T01:14:00.895Z,6.78
2018-11-20T01:16:29.204Z,6.75
2018-11-20T01:18:58.126Z,6.76
2018-11-20T01:21:25.872Z,6.75
2018-11-20T01:23:54.192Z,6.73
2018-11-20T01:26:22.744Z,6.74
2018-11-20T01:28:51.415Z,6.77
2018-11-20T01:31:19.153Z,6.82
2018-11-20T01:33:48.040Z,6.85
2018-11-20T01:36:15.766Z,6.81
2018-11-20T01:38:44.076Z,6.78
2018-11-20T01:41:12.394Z,6.79
2018-11-20T01:43:40.725Z,6.79
2018-11-20T01:46:09.045Z,6.76
2018-11-20T01:48:37.943Z,6.76
2018-11-20T01:51:06.296Z,6.77
2018-11-20T01:53:34.570Z,6.74
2018-11-20T01:56:02.893Z,6.73
2018-11-20T01:58:31.197Z,6.73
2018-11-20T02:00:59.517Z,6.77
2018-11-20T02:03:27.824Z,6.73
2018-11-20T02:05:55.560Z,6.76
2018-11-20T02:08:23.867Z,6.80
2018-11-20T02:10:52.178Z,6.77
2018-11-20T02:13:32.681Z,6.73
2018-11-20T02:16:00.992Z,6.69
2018-11-20T02:18:29.297Z,6.64
2018-11-20T02:20:57.604Z,6.60
2018-11-20T02:23:26.486Z,6.65
2018-11-20T02:25:54.253Z,6.71
2018-11-20T02:28:22.567Z,6.72
2018-11-20T02:30:51.467Z,6.73
2018-11-20T02:33:19.208Z,6.72
2018-11-20T02:35:47.523Z,6.72
2018-11-20T02:38:15.834Z,6.73
2018-11-20T02:40:44.159Z,6.73
2018-11-20T02:43:12.484Z,6.74
2018-11-20T02:45:41.385Z,6.72
2018-11-20T02:48:09.698Z,6.69
2018-11-20T02:50:38.044Z,6.68
2018-11-20T02:53:06.360Z,6.66
2018-11-20T02:55:34.098Z,6.67
2018-11-20T02:58:02.988Z,6.70
2018-11-20T03:00:30.725Z,6.72
2018-11-20T03:02:59.622Z,6.72
2018-11-20T03:05:27.930Z,6.71
2018-11-20T03:07:56.236Z,6.69
2018-11-20T03:10:23.978Z,6.68
2018-11-20T03:12:52.285Z,6.67
2018-11-20T03:15:20.600Z,6.66
2018-11-20T03:17:48.920Z,6.65
2018-11-20T03:20:17.805Z,6.63
2018-11-20T03:22:46.420Z,6.63
2018-11-20T03:25:15.625Z,6.62
2018-11-20T03:27:43.379Z,6.62
2018-11-20T03:30:11.686Z,6.62
2018-11-20T03:32:40.572Z,6.63
2018-11-20T03:35:08.816Z,6.62
2018-11-20T03:37:36.629Z,6.63
2018-11-20T03:40:05.541Z,6.65
2018-11-20T03:42:33.861Z,6.67
2018-11-20T03:45:01.641Z,6.64
2018-11-20T03:47:29.946Z,6.57
2018-11-20T03:49:58.835Z,6.50
2018-11-20T03:52:26.566Z,6.50
2018-11-20T03:54:54.876Z,6.50
2018-11-20T03:57:23.773Z,6.50
2018-11-20T03:59:52.099Z,6.50
2018-11-20T04:02:20.412Z,6.48
2018-11-20T04:04:48.752Z,6.46
2018-11-20T04:07:17.061Z,6.43
2018-11-20T04:09:44.797Z,6.46
2018-11-20T04:12:13.684Z,6.44
2018-11-20T04:14:42.020Z,6.43
2018-11-20T04:17:09.757Z,6.42
2018-11-20T04:19:38.639Z,6.42
2018-11-20T04:22:06.388Z,6.43
2018-11-20T04:24:35.282Z,6.43
2018-11-20T04:27:03.616Z,6.40
2018-11-20T04:29:31.364Z,6.34
2018-11-20T04:31:59.701Z,6.32
2018-11-20T04:34:28.013Z,6.33
2018-11-20T04:36:56.900Z,6.35
2018-11-20T04:39:25.211Z,6.36
2018-11-20T04:41:53.328Z,6.39
2018-11-20T04:44:22.110Z,6.42
2018-11-20T04:46:50.432Z,6.41
2018-11-20T04:49:18.795Z,6.41
2018-11-20T04:51:47.105Z,6.39
2018-11-20T04:54:14.843Z,6.40
2018-11-20T04:56:43.736Z,6.38
2018-11-20T04:59:12.055Z,6.38
2018-11-20T05:01:39.781Z,6.37
2018-11-20T05:04:08.671Z,6.37
2018-11-20T05:06:37.033Z,6.36
2018-11-20T05:09:04.725Z,6.36
2018-11-20T05:11:33.033Z,6.35
2018-11-20T05:14:01.341Z,6.35
2018-11-20T05:16:29.657Z,6.34
2018-11-20T05:18:57.969Z,6.32
2018-11-20T05:21:26.875Z,6.34
2018-11-20T05:23:54.632Z,6.35
2018-11-20T05:26:23.750Z,6.35
2018-11-20T05:28:51.265Z,6.29
2018-11-20T05:31:20.161Z,6.29
2018-11-20T05:33:48.473Z,6.27
2018-11-20T05:36:16.212Z,6.27
2018-11-20T05:38:44.561Z,6.28
2018-11-20T05:41:12.867Z,6.27
2018-11-20T05:43:41.767Z,6.25
2018-11-20T05:46:10.089Z,6.24
2018-11-20T05:48:38.430Z,6.20
2018-11-20T05:51:06.877Z,6.20
2018-11-20T05:53:34.976Z,6.22
2018-11-20T05:56:02.921Z,6.23
2018-11-20T05:58:31.240Z,6.25
2018-11-20T06:01:00.131Z,6.24
2018-11-20T06:03:27.869Z,6.22
2018-11-20T06:05:56.793Z,6.24
2018-11-20T06:08:24.526Z,6.30
2018-11-20T06:10:53.427Z,6.30
2018-11-20T06:13:21.162Z,6.30
2018-11-20T06:15:50.054Z,6.28
2018-11-20T06:18:18.370Z,6.26
2018-11-20T06:20:46.099Z,6.20
2018-11-20T06:23:15.012Z,6.17
2018-11-20T06:25:42.759Z,6.16
2018-11-20T06:28:11.700Z,6.17
2018-11-20T06:30:39.432Z,6.14
2018-11-20T06:33:08.358Z,6.13
2018-11-20T06:35:36.680Z,6.16
2018-11-20T06:38:04.995Z,6.17
2018-11-20T06:40:32.723Z,6.18
2018-11-20T06:43:01.037Z,6.18
2018-11-20T06:45:29.995Z,6.16
2018-11-20T06:47:58.653Z,6.17
2018-11-20T06:50:26.373Z,6.20
2018-11-20T06:52:55.315Z,6.19
2018-11-20T06:55:23.627Z,6.20
2018-11-20T06:57:51.362Z,6.19
2018-11-20T07:00:20.248Z,6.19
2018-11-20T07:02:48.579Z,6.19
2018-11-20T07:05:16.915Z,6.18
2018-11-20T07:07:45.432Z,6.19
2018-11-20T07:10:13.547Z,6.18
2018-11-20T07:12:41.863Z,6.18
2018-11-20T07:15:10.190Z,6.18
2018-11-20T07:17:38.507Z,6.20
2018-11-20T07:20:06.842Z,6.20
2018-11-20T07:22:34.643Z,6.11
2018-11-20T07:25:03.468Z,6.10
2018-11-20T07:27:32.028Z,6.08
2018-11-20T07:29:59.825Z,6.09
2018-11-20T07:32:28.681Z,6.08
2018-11-20T07:34:57.067Z,6.09
2018-11-20T07:37:25.579Z,6.11
2018-11-20T07:39:53.670Z,6.12
2018-11-20T07:42:21.386Z,6.15
2018-11-20T07:44:49.713Z,6.14
2018-11-20T07:47:18.616Z,6.12
2018-11-20T07:49:46.969Z,6.11
2018-11-20T07:52:14.705Z,6.10
2018-11-20T07:54:43.631Z,6.10
2018-11-20T07:57:12.220Z,6.09
2018-11-20T07:59:39.954Z,6.11
2018-11-20T08:02:08.928Z,6.14
2018-11-20T08:04:37.203Z,6.16
2018-11-20T08:07:05.066Z,6.14
2018-11-20T08:09:33.457Z,6.11
2018-11-20T08:12:02.335Z,6.11
2018-11-20T08:14:30.956Z,6.15
2018-11-20T08:16:59.283Z,6.21
2018-11-20T08:19:27.596Z,6.22
2018-11-20T08:21:55.322Z,6.26
2018-11-20T08:24:24.217Z,6.28
2018-11-20T08:26:52.535Z,6.30
2018-11-20T08:29:20.273Z,6.34
2018-11-20T08:31:49.178Z,6.35
2018-11-20T08:34:17.613Z,6.30
2018-11-20T08:36:45.818Z,6.27
2018-11-20T08:39:14.142Z,6.24
2018-11-20T08:41:41.870Z,6.25
2018-11-20T08:44:10.200Z,6.27
2018-11-20T08:46:39.502Z,6.34
2018-11-20T08:49:07.852Z,6.38
2018-11-20T08:51:36.269Z,6.41
2018-11-20T08:54:04.581Z,6.42
2018-11-20T08:56:32.938Z,6.42
2018-11-20T08:59:00.751Z,6.40
2018-11-20T09:01:29.866Z,6.40
2018-11-20T09:03:57.599Z,6.43
2018-11-20T09:06:25.922Z,6.46
2018-11-20T09:08:54.812Z,6.43
2018-11-20T09:11:23.144Z,6.38
2018-11-20T09:13:51.465Z,6.34
2018-11-20T09:16:19.794Z,6.35
2018-11-20T09:18:48.126Z,6.35
2018-11-20T09:21:15.921Z,6.34
2018-11-20T09:23:44.205Z,6.29
2018-11-20T09:26:13.111Z,6.31
2018-11-20T09:28:41.464Z,6.33
2018-11-20T09:31:09.801Z,6.34
2018-11-20T09:33:38.121Z,6.32
2018-11-20T09:36:06.468Z,6.29
2018-11-20T09:38:34.202Z,6.31
2018-11-20T09:41:03.102Z,6.36
2018-11-20T09:43:31.420Z,6.36
2018-11-20T09:45:59.736Z,6.32
2018-11-20T09:48:28.052Z,6.31
2018-11-20T09:50:56.380Z,6.29
2018-11-20T09:53:24.730Z,6.26
2018-11-20T09:55:53.042Z,6.29
2018-11-20T09:58:20.805Z,6.35
2018-11-20T10:00:49.121Z,6.34
2018-11-20T10:03:18.041Z,6.32
2018-11-20T10:05:46.372Z,6.29
2018-11-20T10:08:14.699Z,6.33
2018-11-20T10:10:42.446Z,6.31
2018-11-20T10:13:11.344Z,6.30
2018-11-20T10:15:39.080Z,6.25
2018-11-20T10:18:07.410Z,6.26
2018-11-20T10:20:36.298Z,6.30
2018-11-20T10:23:04.631Z,6.34
2018-11-20T10:25:33.038Z,6.38
2018-11-20T10:28:00.717Z,6.43
2018-11-20T10:30:29.019Z,6.51
2018-11-20T10:32:57.344Z,6.54
2018-11-20T10:35:26.306Z,6.59
2018-11-20T10:37:54.601Z,6.66
2018-11-20T10:40:22.865Z,6.61
2018-11-20T10:42:51.473Z,6.52
2018-11-20T10:45:19.643Z,6.49
2018-11-20T10:47:47.905Z,6.48
2018-11-20T10:50:16.223Z,6.53
2018-11-20T10:52:44.637Z,6.60
2018-11-20T10:55:13.108Z,6.66
2018-11-20T10:57:41.231Z,6.71
2018-11-20T11:00:10.079Z,6.74
2018-11-20T11:02:39.097Z,6.73
2018-11-20T11:05:07.826Z,6.75
2018-11-20T11:07:36.189Z,6.74
2018-11-20T11:10:04.421Z,6.71
2018-11-20T11:12:32.805Z,6.63
2018-11-20T11:15:00.491Z,6.64
2018-11-20T11:17:28.809Z,6.64
2018-11-20T11:19:57.730Z,6.66
2018-11-20T11:22:26.038Z,6.69
2018-11-20T11:24:53.797Z,6.68
2018-11-20T11:27:22.140Z,6.64
2018-11-20T11:29:51.008Z,6.60
2018-11-20T11:32:18.769Z,6.65
2018-11-20T11:34:47.854Z,6.70
2018-11-20T11:37:15.569Z,6.70
2018-11-20T11:39:44.477Z,6.67
2018-11-20T11:42:12.793Z,6.62
2018-11-20T11:44:40.551Z,6.63
2018-11-20T11:47:08.880Z,6.68
2018-11-20T11:49:37.772Z,6.71
2018-11-20T11:52:06.105Z,6.74
2018-11-20T11:54:34.420Z,6.74
2018-11-20T11:57:02.737Z,6.75
2018-11-20T11:59:31.064Z,6.77
2018-11-20T12:04:28.328Z,6.75
2018-11-20T12:06:56.679Z,6.69
2018-11-20T12:09:24.436Z,6.71
2018-11-20T12:11:52.721Z,6.74
2018-11-20T12:14:21.619Z,6.75
2018-11-20T12:16:49.377Z,6.76
2018-11-20T12:19:18.280Z,6.71
2018-11-20T12:21:46.817Z,6.67
2018-11-20T12:24:14.916Z,6.63
2018-11-20T12:26:43.534Z,6.57
2018-11-20T12:29:11.265Z,6.52
2018-11-20T12:31:40.176Z,6.55
2018-11-20T12:34:07.920Z,6.58
2018-11-20T12:36:36.826Z,6.57
2018-11-20T12:39:05.156Z,6.55
2018-11-20T12:41:33.458Z,6.52
2018-11-20T12:44:05.811Z,6.49
2018-11-20T12:46:30.091Z,6.51
2018-11-20T12:48:58.746Z,6.54
2018-11-20T12:51:27.360Z,6.49
2018-11-20T12:53:55.396Z,6.50
2018-11-20T12:56:23.410Z,6.56
2018-11-20T12:58:53.998Z,6.61
2018-11-20T13:01:20.636Z,6.62
2018-11-20T13:03:50.016Z,6.54
2018-11-20T13:06:17.580Z,6.49
2018-11-20T13:08:45.904Z,6.46
2018-11-20T13:11:14.228Z,6.43
2018-11-20T13:13:42.573Z,6.39
2018-11-20T13:16:10.913Z,6.37
2018-11-20T13:18:39.264Z,6.33
2018-11-20T13:21:10.928Z,6.32
2018-11-20T13:23:35.897Z,6.34
2018-11-20T13:26:04.864Z,6.36
2018-11-20T13:28:33.168Z,6.39
2018-11-20T13:31:01.722Z,6.39
2018-11-20T13:33:29.850Z,6.38
2018-11-20T13:35:57.627Z,6.32
2018-11-20T13:38:26.644Z,6.26
2018-11-20T13:41:05.580Z,6.22
2018-11-20T13:43:34.154Z,6.23
2018-11-20T13:46:02.449Z,6.22
2018-11-20T13:48:30.202Z,6.22
2018-11-20T13:50:59.141Z,6.20
2018-11-20T13:53:27.460Z,6.18
2018-11-20T13:55:56.010Z,6.17
2018-11-20T13:58:23.549Z,6.17
2018-11-20T14:00:52.452Z,6.18
2018-11-20T14:03:21.580Z,6.17
2018-11-20T14:05:50.191Z,6.17
2018-11-20T14:08:18.444Z,6.13
2018-11-20T14:10:47.332Z,6.09
2018-11-20T14:13:15.142Z,6.06
2018-11-20T14:15:43.486Z,6.04
2018-11-20T14:18:11.788Z,6.04
2018-11-20T14:20:40.924Z,6.03
2018-11-20T14:23:09.301Z,6.07
2018-11-20T14:25:39.973Z,6.10
2018-11-20T14:28:06.198Z,6.13
2018-11-20T14:30:33.948Z,6.14
2018-11-20T14:33:02.851Z,6.11
2018-11-20T14:35:30.639Z,6.10
2018-11-20T14:37:58.971Z,6.09
2018-11-20T14:40:27.303Z,6.04
2018-11-20T14:42:56.207Z,6.03
2018-11-20T14:45:24.752Z,6.04
2018-11-20T14:47:52.849Z,6.03
2018-11-20T14:50:21.164Z,6.04
2018-11-20T14:52:49.497Z,6.03
2018-11-20T14:55:17.818Z,6.02
2018-11-20T14:57:46.411Z,6.01
2018-11-20T15:00:14.756Z,6.00
2018-11-20T15:02:42.485Z,5.98
2018-11-20T15:05:11.404Z,6.03
2018-11-20T15:07:41.130Z,6.04
2018-11-20T15:10:09.456Z,5.99
2018-11-20T15:12:37.834Z,5.98
2018-11-20T15:15:06.682Z,5.96
2018-11-20T15:17:35.013Z,5.99
2018-11-20T15:20:04.084Z,6.00
2018-11-20T15:22:32.501Z,6.03
2018-11-20T15:25:00.826Z,6.03
2018-11-20T15:27:28.604Z,6.01
2018-11-20T15:30:03.262Z,6.01
2018-11-20T15:32:30.948Z,6.02
2018-11-20T15:35:01.115Z,6.03
2018-11-20T15:37:29.599Z,6.05
2018-11-20T15:39:57.961Z,6.01
2018-11-20T15:42:26.333Z,5.99
2018-11-20T15:44:54.422Z,5.97
2018-11-20T15:47:23.341Z,5.97
2018-11-20T15:49:51.104Z,5.99
2018-11-20T15:52:20.059Z,6.00
2018-11-20T15:54:48.393Z,6.00
2018-11-20T15:57:17.318Z,5.98
2018-11-20T15:59:45.481Z,5.98
2018-11-20T16:02:14.604Z,5.99
2018-11-20T16:04:43.252Z,5.98
2018-11-20T16:07:11.969Z,5.99
2018-11-20T16:09:40.548Z,6.00
2018-11-20T16:12:08.304Z,6.01
2018-11-20T16:14:37.233Z,6.04
2018-11-20T16:17:16.430Z,6.01
2018-11-20T16:19:33.918Z,6.01
2018-11-20T16:22:02.631Z,6.01
2018-11-20T16:24:30.951Z,6.00
2018-11-20T16:26:59.348Z,5.99
2018-11-20T16:29:28.090Z,6.00
2018-11-20T16:31:56.434Z,6.00
2018-11-20T16:34:24.756Z,6.01
2018-11-20T16:36:53.074Z,6.04
2018-11-20T16:39:22.414Z,6.04
2018-11-20T16:41:50.150Z,6.04
2018-11-20T16:44:18.485Z,6.03
2018-11-20T16:46:46.819Z,6.02
2018-11-20T16:49:15.181Z,6.04
2018-11-20T16:51:43.540Z,6.06
2018-11-20T16:54:11.856Z,6.10
2018-11-20T16:56:40.195Z,6.09
2018-11-20T16:59:08.528Z,6.06
2018-11-20T17:01:37.136Z,6.03
2018-11-20T17:04:05.837Z,6.06
2018-11-20T17:06:34.112Z,6.10
2018-11-20T17:09:02.458Z,6.12
2018-11-20T17:11:30.807Z,6.12
2018-11-20T17:13:59.354Z,6.13
2018-11-20T17:16:27.447Z,6.13
2018-11-20T17:18:55.824Z,6.12
2018-11-20T17:21:23.926Z,6.11
2018-11-20T17:23:52.826Z,6.10
2018-11-20T17:26:21.901Z,6.09
2018-11-20T17:28:49.503Z,6.04
2018-11-20T17:31:17.870Z,6.03
2018-11-20T17:33:46.197Z,6.03
2018-11-20T17:36:13.956Z,6.04
2018-11-20T17:38:42.401Z,6.03
2018-11-20T17:41:10.718Z,6.03
2018-11-20T17:43:39.621Z,6.04
2018-11-20T17:46:07.999Z,6.06
2018-11-20T17:48:36.594Z,6.08
2018-11-20T17:51:04.868Z,6.07
2018-11-20T17:53:33.191Z,6.05
2018-11-20T17:56:02.017Z,6.05
2018-11-20T17:58:30.741Z,6.06
2018-11-20T18:00:58.877Z,6.06
2018-11-20T18:03:28.497Z,6.04
2018-11-20T18:05:57.070Z,6.01
2018-11-20T18:08:25.226Z,6.00
2018-11-20T18:10:53.666Z,5.98
2018-11-20T18:13:22.056Z,5.96
2018-11-20T18:15:50.462Z,5.92
2018-11-20T18:18:19.071Z,5.89
2018-11-20T18:20:47.646Z,5.90
2018-11-20T18:23:16.229Z,5.90
2018-11-20T18:25:44.338Z,5.93
2018-11-20T18:28:12.776Z,5.93
2018-11-20T18:30:41.102Z,5.88
2018-11-20T18:33:08.847Z,5.84
2018-11-20T18:35:38.069Z,5.80
2018-11-20T18:38:06.671Z,5.83
2018-11-20T18:40:35.352Z,5.82
2018-11-20T18:43:03.709Z,5.81
2018-11-20T18:45:32.081Z,5.83
2018-11-20T18:48:00.444Z,5.80
2018-11-20T18:50:28.403Z,5.81
2018-11-20T18:52:57.338Z,5.82
2018-11-20T18:55:25.690Z,5.83
2018-11-20T18:57:54.028Z,5.82
2018-11-20T19:00:22.409Z,5.75
2018-11-20T19:02:50.730Z,5.74
2018-11-20T19:05:20.009Z,5.69
2018-11-20T19:07:48.560Z,5.68
2018-11-20T19:10:16.898Z,5.70
2018-11-20T19:12:45.011Z,5.70
2018-11-20T19:15:14.094Z,5.69
2018-11-20T19:17:42.406Z,5.70
2018-11-20T19:20:10.981Z,5.69
2018-11-20T19:22:39.767Z,5.69
2018-11-20T19:25:07.862Z,5.65
2018-11-20T19:27:36.220Z,5.61
2018-11-20T19:30:04.618Z,5.60
2018-11-20T19:32:32.893Z,5.60
2018-11-20T19:35:01.469Z,5.58
2018-11-20T19:37:30.089Z,5.58
2018-11-20T19:39:58.165Z,5.59
2018-11-20T19:42:26.513Z,5.59
2018-11-20T19:44:54.253Z,5.62
2018-11-20T19:47:23.209Z,5.65
2018-11-20T19:49:51.548Z,5.66
2018-11-20T19:52:19.866Z,5.65
2018-11-20T19:54:48.318Z,5.60
2018-11-20T19:57:16.665Z,5.56
2018-11-20T19:59:45.018Z,5.52
2018-11-20T20:02:13.604Z,5.45
2018-11-20T20:04:41.341Z,5.44
2018-11-20T20:07:09.661Z,5.45
2018-11-20T20:09:38.580Z,5.49
2018-11-20T20:12:06.889Z,5.51
2018-11-20T20:14:35.234Z,5.54
2018-11-20T20:17:03.017Z,5.52
2018-11-20T20:19:31.986Z,5.55
2018-11-20T20:21:59.757Z,5.57
2018-11-20T20:24:29.786Z,5.55
2018-11-20T20:26:57.381Z,5.54
2018-11-20T20:29:25.526Z,5.56
2018-11-20T20:31:53.854Z,5.56
2018-11-20T20:34:21.624Z,5.57
2018-11-20T20:36:50.570Z,5.59
2018-11-20T20:39:18.917Z,5.59
2018-11-20T20:41:47.522Z,5.58
2018-11-20T20:44:16.205Z,5.58
2018-11-20T20:46:44.591Z,5.58
2018-11-20T20:49:13.265Z,5.55
2018-11-20T20:51:41.592Z,5.53
2018-11-20T20:54:12.543Z,5.55
2018-11-20T20:56:38.365Z,5.54
2018-11-20T20:59:07.001Z,5.55
2018-11-20T21:01:35.636Z,5.55
2018-11-20T21:04:03.802Z,5.59
2018-11-20T21:06:32.143Z,5.58
2018-11-20T21:09:00.171Z,5.55
2018-11-20T21:11:28.821Z,5.57
2018-11-20T21:13:57.144Z,5.57
2018-11-20T21:16:25.862Z,5.53
2018-11-20T21:18:54.267Z,5.49
2018-11-20T21:21:22.592Z,5.49
2018-11-20T21:23:50.934Z,5.52
2018-11-20T21:26:18.688Z,5.51
2018-11-20T21:28:47.596Z,5.47
2018-11-20T21:31:15.921Z,5.43
2018-11-20T21:33:44.481Z,5.42
2018-11-20T21:36:12.605Z,5.43
2018-11-20T21:38:41.016Z,5.42
2018-11-20T21:41:09.365Z,5.40
2018-11-20T21:43:37.126Z,5.40
2018-11-20T21:46:05.474Z,5.38
2018-11-20T21:48:34.411Z,5.37
2018-11-20T21:51:02.742Z,5.34
2018-11-20T21:53:31.062Z,5.26
2018-11-20T21:55:58.902Z,5.21
2018-11-20T21:58:27.307Z,5.15
2018-11-20T22:00:56.384Z,5.17
2018-11-20T22:03:24.778Z,5.20
2018-11-20T22:05:53.467Z,5.23
2018-11-20T22:08:24.908Z,5.22
2018-11-20T22:10:50.428Z,5.16
2018-11-20T22:13:18.206Z,5.16
2018-11-20T22:15:47.109Z,5.15
2018-11-20T22:18:15.428Z,5.13
2018-11-20T22:20:43.787Z,5.15
2018-11-20T22:23:12.126Z,5.17
2018-11-20T22:25:40.469Z,5.13
2018-11-20T22:28:08.990Z,5.12
2018-11-20T22:30:37.321Z,5.12
2018-11-20T22:33:05.958Z,5.15
2018-11-20T22:35:34.268Z,5.14
2018-11-20T22:38:02.003Z,5.15
2018-11-20T22:40:30.321Z,5.15
2018-11-20T22:42:59.953Z,5.13
2018-11-20T22:45:28.277Z,5.13
2018-11-20T22:47:56.580Z,5.13
2018-11-20T22:50:24.897Z,5.13
2018-11-20T22:52:53.212Z,5.10
2018-11-20T22:55:21.552Z,5.12
2018-11-20T22:57:49.297Z,5.12
2018-11-20T23:00:18.452Z,5.13
2018-11-20T23:02:46.773Z,5.09
2018-11-20T23:05:13.970Z,5.10
2018-11-20T23:07:42.862Z,5.09
2018-11-20T23:10:11.196Z,5.09
2018-11-20T23:12:38.946Z,5.09
2018-11-20T23:15:07.883Z,5.12
2018-11-20T23:17:36.192Z,5.13
2018-11-20T23:20:03.952Z,5.10
2018-11-20T23:22:32.311Z,5.04
2018-11-20T23:25:01.216Z,4.99
2018-11-20T23:27:30.607Z,4.97
2018-11-20T23:29:57.561Z,4.96
2018-11-20T23:32:26.473Z,4.93
2018-11-20T23:34:54.794Z,4.93
2018-11-20T23:37:22.546Z,4.92
2018-11-20T23:39:51.447Z,4.90
2018-11-20T23:42:23.853Z,4.88
2018-11-20T23:44:48.125Z,4.84
2018-11-20T23:47:15.878Z,4.84
2018-11-20T23:49:44.168Z,4.83
2018-11-20T23:52:13.059Z,4.82
2018-11-20T23:54:40.815Z,4.78
2018-11-20T23:57:09.709Z,4.75
2018-11-20T23:59:37.440Z,4.75
